Time;durP1;ratioP1;P1;durP2;ratioP2;P2;SDS_P1;SDS_P2;PMS_P1;PMS_P2;Temp;Humidity;BMP_temperature;BMP_pressure;BME280_temperature;BME280_humidity;BME280_pressure;Samples;Min_cycle;Max_cycle;Signal;HPM_P1;HPM_P2
2022/01/16 00:00:40;;;;;;;7.65;4.80;;;;;;;6.89;45.82;102109.55;1652418;85;21029;-52
2022/01/16 00:05:53;;;;;;;8.28;4.50;;;;;;;6.88;45.69;102133.70;1647235;85;21059;-51
2022/01/16 00:08:22;;;;;;;8.63;4.60;;;;;;;6.87;45.78;102135.41;1652832;85;22659;-51
2022/01/16 00:10:50;;;;;;;7.15;5.22;;;;;;;6.86;45.79;102137.98;1637590;86;21089;-51
2022/01/16 00:13:16;;;;;;;7.28;4.33;;;;;;;6.89;45.75;102140.59;1662870;86;21590;-52
2022/01/16 00:15:44;;;;;;;5.30;4.35;;;;;;;6.91;45.70;102136.31;1648273;86;21567;-51
2022/01/16 00:18:24;;;;;;;7.65;4.37;;;;;;;6.93;45.73;102144.97;1644646;86;20979;-51
2022/01/16 00:20:49;;;;;;;6.22;4.65;;;;;;;6.93;45.86;102161.38;1661728;85;21074;-51
2022/01/16 00:23:24;;;;;;;6.25;4.97;;;;;;;6.93;45.88;102165.67;1648001;86;21035;-51
2022/01/16 00:25:45;;;;;;;6.08;4.22;;;;;;;6.91;45.83;102157.02;1640672;86;20994;-51
2022/01/16 00:28:12;;;;;;;8.13;4.55;;;;;;;6.91;45.92;102154.42;1646731;86;21110;-51
2022/01/16 00:30:39;;;;;;;7.55;4.75;;;;;;;6.90;45.89;102150.12;1647370;85;21126;-51
2022/01/16 00:33:05;;;;;;;5.87;3.70;;;;;;;6.89;45.98;102150.95;1658436;85;21069;-51
2022/01/16 00:35:33;;;;;;;4.67;3.42;;;;;;;6.91;45.88;102147.95;1648618;86;21177;-52
2022/01/16 00:38:00;;;;;;;5.85;3.33;;;;;;;6.91;45.90;102138.91;1641087;86;20999;-51
2022/01/16 00:40:29;;;;;;;4.25;2.98;;;;;;;6.91;45.92;102146.66;1641093;86;21086;-51
2022/01/16 00:42:57;;;;;;;5.37;2.87;;;;;;;6.90;45.89;102149.70;1646694;86;21054;-51
2022/01/16 00:45:25;;;;;;;5.58;2.87;;;;;;;6.88;45.97;102146.22;1639287;86;21109;-51
2022/01/16 00:47:52;;;;;;;5.95;3.47;;;;;;;6.88;45.97;102146.63;1658175;86;21187;-51
2022/01/16 00:50:18;;;;;;;6.35;3.35;;;;;;;6.87;45.86;102155.23;1678591;83;21041;-52
2022/01/16 00:52:45;;;;;;;5.92;3.58;;;;;;;6.86;45.89;102150.92;1677649;84;21006;-51
2022/01/16 00:55:11;;;;;;;5.05;3.50;;;;;;;6.87;45.82;102155.23;1702887;83;21024;-51
2022/01/16 00:57:38;;;;;;;5.78;3.33;;;;;;;6.89;45.75;102150.95;1685029;83;21498;-51
2022/01/16 01:00:07;;;;;;;4.83;3.20;;;;;;;6.88;45.84;102178.98;1688565;83;21101;-51
2022/01/16 01:02:35;;;;;;;4.90;3.40;;;;;;;6.87;45.83;102206.97;1684641;83;21172;-53
2022/01/16 01:05:01;;;;;;;6.03;3.65;;;;;;;6.89;45.89;102225.98;1707191;83;21050;-51
2022/01/16 01:07:27;;;;;;;5.42;3.40;;;;;;;6.89;45.85;102241.51;1688450;83;21608;-52
2022/01/16 01:09:54;;;;;;;5.72;3.27;;;;;;;6.88;45.97;102281.18;1678826;83;21076;-52
2022/01/16 01:12:28;;;;;;;6.75;3.55;;;;;;;6.89;45.93;102253.15;1681266;83;21017;-51
2022/01/16 01:15:09;;;;;;;7.03;3.10;;;;;;;6.90;45.74;102219.56;1696652;83;21065;-52
2022/01/16 01:17:45;;;;;;;6.03;3.65;;;;;;;6.91;45.70;102153.13;1698914;83;21620;-51
2022/01/16 01:20:08;;;;;;;4.47;3.52;;;;;;;6.91;45.65;102078.09;1661815;85;21035;-52
2022/01/16 01:22:35;;;;;;;4.40;3.80;;;;;;;6.90;45.74;102011.27;1601127;88;21054;-51
2022/01/16 01:25:01;;;;;;;9.78;4.10;;;;;;;6.90;45.69;102011.69;1612226;88;21075;-52
2022/01/16 01:27:31;;;;;;;8.68;3.42;;;;;;;6.87;45.80;102046.14;1610400;88;21114;-51
2022/01/16 01:30:03;;;;;;;4.67;3.40;;;;;;;6.87;45.84;102041.39;1608950;88;21075;-51
2022/01/16 01:32:27;;;;;;;5.20;3.25;;;;;;;6.86;45.82;102083.65;1613808;88;21074;-52
2022/01/16 01:34:53;;;;;;;5.70;3.40;;;;;;;6.84;45.90;102094.40;1618091;88;20996;-51
2022/01/16 01:37:20;;;;;;;5.83;3.85;;;;;;;6.84;45.84;102087.93;1613781;88;21071;-51
2022/01/16 01:39:46;;;;;;;5.22;3.40;;;;;;;6.81;45.94;102122.38;1599738;88;21045;-51
2022/01/16 01:42:14;;;;;;;6.47;3.00;;;;;;;6.79;46.12;102112.85;1632125;87;21157;-52
2022/01/16 01:52:59;;;;;;;5.05;2.98;;;;;;;6.80;46.04;102137.89;1604555;88;21139;-51
2022/01/16 01:55:26;;;;;;;5.65;3.05;;;;;;;6.83;45.99;102125.86;1589791;88;21080;-51
2022/01/16 01:57:53;;;;;;;5.42;3.00;;;;;;;6.84;45.92;102159.08;1612816;88;21069;-52
2022/01/16 02:00:20;;;;;;;5.03;3.12;;;;;;;6.85;45.95;102175.91;1657516;85;21122;-51
2022/01/16 02:05:25;;;;;;;7.58;2.85;;;;;;;6.89;45.77;102170.35;1658885;85;21138;-52
2022/01/16 02:07:51;;;;;;;4.75;2.65;;;;;;;6.88;45.70;102173.80;1664599;85;21104;-52
2022/01/16 02:10:18;;;;;;;3.98;2.33;;;;;;;6.88;45.74;102178.98;1642894;85;21002;-52
2022/01/16 02:12:46;;;;;;;7.92;3.22;;;;;;;6.91;45.58;102193.23;1663147;85;21154;-52
2022/01/16 02:31:36;;;;;;;4.25;2.72;;;;;;;6.89;45.09;102200.98;1656174;86;22252;-51
2022/01/16 02:36:50;;;;;;;4.05;2.10;;;;;;;6.86;45.29;102210.42;1653924;86;21088;-51
2022/01/16 02:39:16;;;;;;;5.17;2.50;;;;;;;6.83;45.30;102219.41;1661978;86;21068;-51
2022/01/16 02:41:44;;;;;;;4.67;2.90;;;;;;;6.81;45.52;102209.47;1644045;86;21005;-52
2022/01/16 02:46:40;;;;;;;3.22;2.62;;;;;;;6.79;45.57;102218.91;1578422;90;21130;-52
2022/01/16 02:49:22;;;;;;;3.65;2.70;;;;;;;6.78;45.59;102214.61;1579547;89;21071;-52
2022/01/16 02:51:53;;;;;;;5.83;3.27;;;;;;;6.78;45.56;102218.48;1555497;91;21183;-51
2022/01/16 02:54:21;;;;;;;3.60;2.60;;;;;;;6.78;45.55;102214.16;1592023;87;21050;-51
2022/01/16 02:56:48;;;;;;;4.65;2.90;;;;;;;6.79;45.57;102227.97;1634660;87;21079;-52
2022/01/16 02:59:15;;;;;;;5.03;2.70;;;;;;;6.78;45.63;102219.78;1628674;87;21055;-52
2022/01/16 03:01:42;;;;;;;3.40;2.33;;;;;;;6.78;45.66;102233.56;1623200;87;21075;-51
2022/01/16 03:04:08;;;;;;;3.80;2.55;;;;;;;6.76;45.66;102224.05;1630859;87;21038;-51
2022/01/16 03:06:35;;;;;;;4.20;2.67;;;;;;;6.75;45.50;102233.52;1629284;87;21055;-52
2022/01/16 03:09:05;;;;;;;4.78;2.62;;;;;;;6.75;45.59;102242.99;1632684;87;21115;-52
2022/01/16 03:11:35;;;;;;;4.47;2.42;;;;;;;6.76;45.48;102253.80;1628945;87;21054;-52
2022/01/16 03:14:04;;;;;;;4.67;2.85;;;;;;;6.79;45.55;102260.31;1620908;87;21375;-51
2022/01/16 03:16:31;;;;;;;4.25;2.40;;;;;;;6.80;45.45;102259.48;1624970;87;21530;-52
2022/01/16 03:21:54;;;;;;;4.55;2.50;;;;;;;6.85;45.29;102260.41;1630075;87;21090;-52
2022/01/16 03:24:29;;;;;;;4.05;2.40;;;;;;;6.84;45.14;102258.69;1625425;87;21078;-52
2022/01/16 03:26:58;;;;;;;5.20;3.10;;;;;;;6.86;45.18;102269.94;1621127;87;21065;-52
2022/01/16 03:29:25;;;;;;;3.75;2.42;;;;;;;6.85;45.24;102266.88;1630585;87;21074;-52
2022/01/16 03:31:52;;;;;;;2.40;2.20;;;;;;;6.84;45.15;102269.04;1632677;87;21557;-51
2022/01/16 03:34:18;;;;;;;3.92;2.33;;;;;;;6.83;45.20;102265.98;1628755;87;21137;-51
2022/01/16 03:36:45;;;;;;;3.62;2.42;;;;;;;6.82;45.25;102265.10;1627901;87;21102;-51
2022/01/16 03:39:11;;;;;;;5.12;2.35;;;;;;;6.82;45.30;102260.37;1635170;87;21492;-51
2022/01/16 03:41:38;;;;;;;6.08;2.45;;;;;;;6.80;45.29;102259.48;1627018;87;21070;-51
2022/01/16 03:44:05;;;;;;;4.22;2.17;;;;;;;6.80;45.30;102259.48;1678246;83;21010;-51
2022/01/16 03:46:36;;;;;;;3.83;2.33;;;;;;;6.79;45.32;102249.96;1710368;83;21577;-51
2022/01/16 03:49:16;;;;;;;4.33;2.47;;;;;;;6.79;45.25;102260.31;1701035;83;21031;-51
2022/01/16 03:51:44;;;;;;;5.85;2.25;;;;;;;6.79;45.19;102260.31;1661316;86;21120;-51
2022/01/16 03:54:12;;;;;;;4.03;2.22;;;;;;;6.76;45.24;102257.69;1666843;85;21594;-51
2022/01/16 03:56:39;;;;;;;5.53;2.47;;;;;;;6.75;45.28;102263.69;1661915;85;21028;-51
2022/01/16 03:59:06;;;;;;;4.97;2.83;;;;;;;6.75;45.34;102268.45;1667612;84;21159;-51
2022/01/16 04:01:33;;;;;;;3.72;2.05;;;;;;;6.78;45.42;102274.11;1664951;85;21089;-51
2022/01/16 04:03:59;;;;;;;3.47;2.40;;;;;;;6.79;45.08;102277.13;1664983;85;20985;-52
2022/01/16 04:06:26;;;;;;;4.58;2.42;;;;;;;6.80;44.95;102283.61;1664389;85;21076;-52
2022/01/16 04:08:54;;;;;;;4.92;2.35;;;;;;;6.82;45.01;102282.38;1660093;85;21082;-51
2022/01/16 04:11:24;;;;;;;3.55;2.30;;;;;;;6.84;45.03;102282.81;1669977;85;21050;-51
2022/01/16 04:13:54;;;;;;;5.47;2.52;;;;;;;6.85;44.94;102291.46;1663488;85;21053;-51
2022/01/16 04:16:22;;;;;;;6.00;2.17;;;;;;;6.87;44.95;102294.95;1674013;85;21081;-51
2022/01/16 04:18:51;;;;;;;4.15;2.08;;;;;;;6.89;44.97;102300.61;1669753;85;21101;-51
2022/01/16 04:21:18;;;;;;;5.58;2.02;;;;;;;6.92;44.86;102299.38;1660807;85;21513;-53
2022/01/16 04:23:45;;;;;;;5.92;1.95;;;;;;;6.93;44.73;102300.23;1659031;84;21412;-51
2022/01/16 04:26:12;;;;;;;3.35;2.20;;;;;;;6.93;44.60;102304.11;1656704;85;21069;-51
2022/01/16 04:28:39;;;;;;;4.85;1.70;;;;;;;6.90;44.60;102309.25;1669682;85;21136;-51
2022/01/16 04:31:05;;;;;;;5.08;2.35;;;;;;;6.87;44.74;102313.06;1668428;85;21061;-51
2022/01/16 04:33:32;;;;;;;3.65;2.10;;;;;;;6.84;44.76;102307.84;1670638;85;21066;-51
2022/01/16 04:35:58;;;;;;;4.83;2.10;;;;;;;6.85;44.72;102313.45;1664987;85;21009;-51
2022/01/16 04:38:24;;;;;;;4.20;2.17;;;;;;;6.85;44.82;102317.34;1663519;85;21069;-51
2022/01/16 04:43:47;;;;;;;4.45;2.42;;;;;;;6.84;44.82;102324.66;1657535;85;21049;-51
2022/01/16 04:46:18;;;;;;;3.87;2.25;;;;;;;6.81;44.88;102318.13;1660933;84;21108;-50
2022/01/16 04:48:45;;;;;;;6.03;2.67;;;;;;;6.81;44.89;102321.59;1640350;86;21529;-51
2022/01/16 04:51:11;;;;;;;4.47;2.70;;;;;;;6.80;44.90;102330.18;1636237;86;21036;-51
2022/01/16 04:53:39;;;;;;;4.30;2.27;;;;;;;6.79;45.05;102322.40;1652685;84;21014;-50
2022/01/16 04:56:05;;;;;;;6.25;2.42;;;;;;;6.80;45.01;102324.16;1629649;86;21518;-51
2022/01/16 04:58:33;;;;;;;4.92;2.72;;;;;;;6.80;44.94;102330.63;1651301;86;21609;-50
2022/01/16 05:01:00;;;;;;;6.00;2.70;;;;;;;6.76;44.93;102321.91;1651199;84;21606;-50
2022/01/16 05:03:28;;;;;;;3.90;2.27;;;;;;;6.74;45.03;102327.93;1617780;88;21066;-51
2022/01/16 05:05:54;;;;;;;4.72;2.65;;;;;;;6.73;45.14;102332.63;1590557;89;21606;-51
2022/01/16 05:08:21;;;;;;;6.00;2.70;;;;;;;6.74;45.14;102329.22;1608660;88;21638;-51
2022/01/16 05:10:48;;;;;;;5.55;2.77;;;;;;;6.73;45.26;102326.17;1616451;88;21084;-51
2022/01/16 05:18:36;;;;;;;6.60;2.75;;;;;;;6.75;45.28;102341.30;1572736;90;21178;-50
2022/01/16 05:21:03;;;;;;;5.47;2.72;;;;;;;6.77;45.11;102339.61;1565937;90;21033;-51
2022/01/16 05:23:31;;;;;;;4.40;2.27;;;;;;;6.78;45.05;102340.08;1599288;89;21070;-50
2022/01/16 05:25:59;;;;;;;4.42;2.37;;;;;;;6.78;45.04;102331.02;1580175;89;21026;-51
2022/01/16 05:28:25;;;;;;;4.75;2.52;;;;;;;6.76;45.04;102335.30;1579681;89;21626;-51
2022/01/16 05:30:53;;;;;;;5.05;2.75;;;;;;;6.75;45.13;102332.23;1578556;89;21147;-51
2022/01/16 05:33:20;;;;;;;5.60;3.00;;;;;;;6.78;45.06;102345.25;1582558;90;21172;-50
2022/01/16 05:35:46;;;;;;;5.92;2.83;;;;;;;6.80;44.91;102356.05;1591429;90;21647;-51
2022/01/16 05:38:14;;;;;;;3.87;2.50;;;;;;;6.83;44.77;102353.54;1578020;89;21118;-51
2022/01/16 05:40:40;;;;;;;5.53;2.55;;;;;;;6.87;44.81;102357.92;1591074;90;21169;-51
2022/01/16 05:43:07;;;;;;;3.58;2.70;;;;;;;6.89;44.70;102371.77;1566249;90;21093;-53
2022/01/16 05:45:34;;;;;;;4.10;2.08;;;;;;;6.91;44.77;102374.38;1593268;87;21063;-51
2022/01/16 05:48:00;;;;;;;5.45;2.87;;;;;;;6.94;44.52;102379.62;1628285;86;21031;-52
2022/01/16 05:50:27;;;;;;;4.30;2.75;;;;;;;6.94;44.45;102375.33;1631199;88;21046;-50
2022/01/16 05:52:53;;;;;;;3.80;2.50;;;;;;;6.98;44.33;102380.13;1644272;86;21013;-51
2022/01/16 05:55:20;;;;;;;7.35;3.25;;;;;;;6.98;44.35;102378.83;1635652;86;21056;-51
2022/01/16 05:57:47;;;;;;;4.37;2.62;;;;;;;7.02;44.30;102383.22;1629471;87;21128;-51
2022/01/16 06:00:15;;;;;;;6.28;2.80;;;;;;;7.06;44.22;102383.73;1636447;86;21147;-51
2022/01/16 06:02:41;;;;;;;4.70;2.58;;;;;;;7.11;44.11;102387.28;1628102;87;21057;-51
2022/01/16 06:05:10;;;;;;;4.28;2.65;;;;;;;7.13;43.99;102384.30;1636153;86;21528;-50
2022/01/16 06:07:36;;;;;;;6.03;2.37;;;;;;;7.16;44.00;102391.69;1628947;87;21046;-50
2022/01/16 06:10:04;;;;;;;3.02;2.08;;;;;;;7.21;43.83;102396.95;1668793;84;20987;-51
2022/01/16 06:12:32;;;;;;;4.92;2.30;;;;;;;7.23;43.69;102392.67;1644398;86;21531;-51
2022/01/16 06:15:00;;;;;;;3.45;2.50;;;;;;;7.24;43.66;102388.81;1643002;86;21614;-51
2022/01/16 06:17:27;;;;;;;4.00;2.55;;;;;;;7.26;43.64;102394.01;1643596;86;21023;-51
2022/01/16 06:19:53;;;;;;;3.65;2.47;;;;;;;7.27;43.54;102394.47;1643907;86;21035;-51
2022/01/16 06:22:19;;;;;;;3.47;2.45;;;;;;;7.31;43.50;102397.56;1699552;83;20993;-53
2022/01/16 06:24:46;;;;;;;4.53;2.00;;;;;;;7.32;43.41;102396.70;1682517;83;21014;-50
2022/01/16 06:27:12;;;;;;;6.03;2.17;;;;;;;7.29;43.33;102394.08;1692055;83;21054;-51
2022/01/16 06:29:39;;;;;;;3.10;2.27;;;;;;;7.28;43.46;102407.85;1695074;83;21066;-51
2022/01/16 06:32:06;;;;;;;3.40;2.12;;;;;;;7.28;43.49;102416.91;1705053;83;21022;-51
2022/01/16 06:34:33;;;;;;;6.10;2.70;;;;;;;7.29;43.56;102429.03;1681459;83;21078;-50
2022/01/16 06:36:59;;;;;;;5.00;2.33;;;;;;;7.30;43.60;102424.28;1701669;83;21504;-50
2022/01/16 06:39:28;;;;;;;4.28;2.25;;;;;;;7.33;43.59;102430.83;1679328;83;21494;-51
2022/01/16 06:41:56;;;;;;;6.55;2.30;;;;;;;7.34;43.63;102432.14;1687508;83;21031;-51
2022/01/16 06:44:23;;;;;;;5.05;2.85;;;;;;;7.36;43.65;102439.94;1693878;83;21095;-51
2022/01/16 06:46:49;;;;;;;3.92;2.17;;;;;;;7.38;43.64;102435.66;1683624;83;21025;-51
2022/01/16 06:49:16;;;;;;;5.95;2.72;;;;;;;7.37;43.54;102444.28;1687075;83;21058;-50
2022/01/16 06:51:42;;;;;;;4.83;2.17;;;;;;;7.38;43.49;102444.72;1684228;83;21093;-51
2022/01/16 06:54:09;;;;;;;5.67;2.42;;;;;;;7.41;43.51;102446.08;1690243;83;20995;-50
2022/01/16 06:56:35;;;;;;;4.22;2.08;;;;;;;7.43;43.36;102441.80;1689900;83;21116;-51
2022/01/16 06:59:01;;;;;;;5.67;2.60;;;;;;;7.43;43.42;102441.80;1676727;83;21617;-50
2022/01/16 07:01:29;;;;;;;3.65;2.33;;;;;;;7.44;43.30;102450.00;1690191;83;21545;-51
2022/01/16 07:03:55;;;;;;;5.42;2.62;;;;;;;7.44;43.30;102459.06;1688248;83;21569;-51
2022/01/16 07:06:23;;;;;;;7.08;2.62;;;;;;;7.43;43.32;102461.64;1683958;83;21081;-51
2022/01/16 07:08:50;;;;;;;13.08;2.77;;;;;;;7.42;43.42;102465.94;1710136;83;21085;-52
2022/01/16 07:11:16;;;;;;;4.78;2.40;;;;;;;7.44;43.36;102477.20;1685661;83;21079;-51
2022/01/16 07:13:43;;;;;;;4.15;2.12;;;;;;;7.44;43.27;102478.49;1696793;83;21021;-51
2022/01/16 07:16:09;;;;;;;4.30;2.65;;;;;;;7.43;43.29;102479.35;1689932;83;21033;-50
2022/01/16 07:18:37;;;;;;;3.15;2.10;;;;;;;7.45;43.28;102480.66;1691627;83;21664;-50
2022/01/16 07:21:12;;;;;;;5.10;2.58;;;;;;;7.45;43.27;102489.31;1676131;83;21058;-51
2022/01/16 07:23:34;;;;;;;3.62;2.12;;;;;;;7.46;43.24;102483.28;1684517;83;21109;-51
2022/01/16 07:26:00;;;;;;;4.90;2.40;;;;;;;7.49;43.33;102487.65;1677762;83;21062;-51
2022/01/16 07:28:26;;;;;;;5.47;2.62;;;;;;;7.50;43.16;102482.48;1690246;83;21320;-50
2022/01/16 07:30:53;;;;;;;4.25;2.35;;;;;;;7.47;43.08;102485.04;1694767;83;21042;-50
2022/01/16 07:33:20;;;;;;;4.85;2.37;;;;;;;7.47;43.07;102482.86;1686385;83;21101;-51
2022/01/16 07:35:47;;;;;;;3.95;2.40;;;;;;;7.46;43.15;102480.69;1698604;83;21582;-51
2022/01/16 07:38:13;;;;;;;5.65;2.50;;;;;;;7.49;43.16;102482.05;1684054;83;21577;-51
2022/01/16 07:40:40;;;;;;;3.80;2.35;;;;;;;7.53;43.18;102485.15;1682323;83;21042;-51
2022/01/16 07:43:06;;;;;;;3.95;2.30;;;;;;;7.56;43.16;102485.22;1685852;83;21076;-51
2022/01/16 07:45:33;;;;;;;5.45;2.67;;;;;;;7.60;43.02;102486.14;1672088;83;21049;-50
2022/01/16 07:48:00;;;;;;;6.28;2.90;;;;;;;7.62;42.83;102485.33;1682500;83;21179;-51
2022/01/16 07:50:27;;;;;;;5.08;2.60;;;;;;;7.64;42.83;102494.00;1682553;83;21019;-51
2022/01/16 07:52:53;;;;;;;7.92;2.45;;;;;;;7.65;42.80;102497.02;1687831;83;21582;-50
2022/01/16 07:55:22;;;;;;;5.30;2.62;;;;;;;7.67;42.71;102497.92;1690467;83;21033;-51
2022/01/16 07:57:49;;;;;;;5.90;2.62;;;;;;;7.65;42.64;102499.61;1666439;83;21002;-50
2022/01/16 08:00:17;;;;;;;4.20;2.55;;;;;;;7.67;42.64;102506.98;1683274;83;21549;-51
2022/01/16 08:02:43;;;;;;;5.20;3.05;;;;;;;7.69;42.59;102500.11;1689679;83;21522;-51
2022/01/16 08:05:10;;;;;;;4.33;2.58;;;;;;;7.68;42.56;102497.09;1706202;83;21541;-50
2022/01/16 08:07:37;;;;;;;4.20;2.75;;;;;;;7.70;42.70;102500.58;1703834;82;21093;-51
2022/01/16 08:10:07;;;;;;;3.95;2.15;;;;;;;7.72;42.75;102505.37;1688496;83;21125;-50
2022/01/16 08:12:35;;;;;;;4.95;2.20;;;;;;;7.74;42.67;102503.67;1684236;83;21002;-51
2022/01/16 08:15:03;;;;;;;4.37;2.42;;;;;;;7.76;42.50;102504.58;1692754;83;21517;-51
2022/01/16 08:17:30;;;;;;;4.35;2.60;;;;;;;7.79;42.33;102504.61;1673342;83;21086;-51
2022/01/16 08:19:56;;;;;;;4.33;2.90;;;;;;;7.80;42.29;102499.89;1684902;83;21080;-51
2022/01/16 08:22:23;;;;;;;6.33;3.08;;;;;;;7.79;42.20;102496.83;1678559;83;21067;-51
2022/01/16 08:24:50;;;;;;;5.62;2.98;;;;;;;7.79;42.26;102503.76;1681085;83;21059;-51
2022/01/16 08:27:16;;;;;;;4.83;2.45;;;;;;;7.79;42.28;102501.17;1694032;83;21519;-50
2022/01/16 08:29:43;;;;;;;2.42;1.90;;;;;;;7.79;42.00;102502.02;1680456;83;21088;-51
2022/01/16 08:32:11;;;;;;;3.00;2.10;;;;;;;7.81;41.98;102502.06;1679456;83;21063;-50
2022/01/16 08:34:39;;;;;;;5.70;2.87;;;;;;;7.83;41.93;102503.81;1695982;83;21118;-51
2022/01/16 08:37:07;;;;;;;6.65;3.08;;;;;;;7.86;41.90;102498.70;1693890;83;21538;-50
2022/01/16 08:39:35;;;;;;;6.78;2.62;;;;;;;7.90;41.81;102508.68;1693011;83;21549;-51
2022/01/16 08:42:03;;;;;;;4.12;2.85;;;;;;;7.90;41.87;102503.09;1687508;83;21077;-51
2022/01/16 08:44:30;;;;;;;5.03;2.55;;;;;;;7.92;41.82;102505.28;1679207;83;21547;-52
2022/01/16 08:46:56;;;;;;;8.13;2.72;;;;;;;7.96;41.76;102503.19;1693628;83;21052;-50
2022/01/16 08:49:23;;;;;;;3.90;2.52;;;;;;;7.98;41.74;102497.59;1697393;83;21057;-51
2022/01/16 08:51:49;;;;;;;5.22;2.85;;;;;;;8.02;41.65;102502.40;1682171;83;21045;-51
2022/01/16 08:54:15;;;;;;;5.08;2.45;;;;;;;8.05;41.55;102496.87;1685215;83;21009;-51
2022/01/16 08:56:42;;;;;;;5.58;2.47;;;;;;;8.07;41.64;102486.52;1690202;83;21088;-51
2022/01/16 08:59:08;;;;;;;4.65;1.85;;;;;;;8.09;41.68;102499.95;1691799;83;21018;-51
2022/01/16 09:01:35;;;;;;;4.42;2.33;;;;;;;8.12;41.53;102499.11;1695200;83;21121;-51
2022/01/16 09:04:01;;;;;;;4.53;2.67;;;;;;;8.12;41.46;102496.52;1682659;83;21574;-51
2022/01/16 09:06:28;;;;;;;3.55;2.12;;;;;;;8.13;41.50;102493.09;1710293;83;21022;-50
2022/01/16 09:08:54;;;;;;;3.08;2.12;;;;;;;8.14;41.46;102493.52;1683539;83;21101;-50
2022/01/16 09:11:25;;;;;;;3.85;2.42;;;;;;;8.16;41.55;102492.70;1691692;83;20994;-51
2022/01/16 09:13:50;;;;;;;3.90;2.50;;;;;;;8.18;41.48;102485.81;1698654;83;21090;-51
2022/01/16 09:16:18;;;;;;;3.90;2.52;;;;;;;8.21;41.36;102487.17;1680061;84;21078;-51
2022/01/16 09:18:47;;;;;;;6.50;3.00;;;;;;;8.21;41.13;102485.88;1686116;83;21522;-51
2022/01/16 09:21:18;;;;;;;4.67;3.10;;;;;;;8.21;41.20;102487.17;1681532;83;21057;-50
2022/01/16 09:23:46;;;;;;;4.87;3.30;;;;;;;8.23;41.26;102485.48;1684366;83;21022;-50
2022/01/16 09:26:13;;;;;;;4.33;2.60;;;;;;;8.26;41.26;102490.30;1688165;83;21073;-51
2022/01/16 09:28:41;;;;;;;6.22;3.80;;;;;;;8.26;41.19;102488.58;1694589;83;21050;-50
2022/01/16 09:31:07;;;;;;;5.50;3.17;;;;;;;8.28;41.11;102487.30;1679115;83;21082;-51
2022/01/16 09:33:34;;;;;;;4.70;2.70;;;;;;;8.29;40.99;102482.13;1684861;83;21110;-51
2022/01/16 09:36:02;;;;;;;3.62;2.47;;;;;;;8.28;40.84;102474.34;1696352;83;21037;-50
2022/01/16 09:38:29;;;;;;;5.10;3.00;;;;;;;8.29;40.81;102473.47;1680977;83;21044;-53
2022/01/16 09:40:55;;;;;;;5.05;2.20;;;;;;;8.29;40.84;102473.47;1703041;83;21006;-52
2022/01/16 09:43:22;;;;;;;6.35;3.30;;;;;;;8.30;40.95;102475.23;1685800;83;21474;-53
2022/01/16 09:45:51;;;;;;;6.15;2.98;;;;;;;8.31;40.96;102473.95;1708303;83;21022;-54
2022/01/16 09:48:18;;;;;;;4.45;2.15;;;;;;;8.33;40.91;102466.18;1679612;84;21050;-53
2022/01/16 09:50:44;;;;;;;2.90;2.00;;;;;;;8.33;40.80;102468.77;1683796;83;21061;-52
2022/01/16 09:53:12;;;;;;;3.87;2.20;;;;;;;8.35;40.57;102470.96;1693866;83;20986;-52
2022/01/16 09:55:39;;;;;;;4.10;2.27;;;;;;;8.33;40.51;102466.18;1701884;83;21054;-52
2022/01/16 09:58:06;;;;;;;5.83;2.75;;;;;;;8.34;40.52;102472.71;1684806;83;20995;-53
2022/01/16 10:00:32;;;;;;;3.60;2.10;;;;;;;8.35;40.57;102476.16;1684521;83;21101;-52
2022/01/16 10:02:59;;;;;;;2.67;1.80;;;;;;;8.35;40.60;102476.16;1684605;83;21034;-52
2022/01/16 10:05:36;;;;;;;4.40;1.92;;;;;;;8.34;40.43;102473.13;1701302;83;21041;-52
2022/01/16 10:08:11;;;;;;;6.83;2.40;;;;;;;8.34;40.10;102460.16;1679868;83;21018;-52
2022/01/16 10:10:40;;;;;;;6.17;2.47;;;;;;;8.34;40.20;102453.26;1624168;86;21074;-52
2022/01/16 10:13:38;;;;;;;3.45;2.08;;;;;;;8.35;40.17;102452.81;1604746;87;21163;-52
2022/01/16 10:15:58;;;;;;;4.03;1.75;;;;;;;8.35;40.07;102450.21;1599338;87;21114;-53
2022/01/16 10:18:38;;;;;;;2.87;2.00;;;;;;;8.35;40.08;102459.30;1582516;89;21551;-52
2022/01/16 10:21:08;;;;;;;3.47;2.33;;;;;;;8.34;39.97;102454.55;1576831;89;21066;-53
2022/01/16 10:23:40;;;;;;;4.55;1.85;;;;;;;8.34;40.06;102451.96;1520852;92;21086;-53
2022/01/16 10:26:21;;;;;;;3.27;2.00;;;;;;;8.35;39.99;102452.81;1530841;91;21086;-52
2022/01/16 10:28:52;;;;;;;5.90;2.65;;;;;;;8.36;40.01;102445.48;1547017;91;21106;-52
2022/01/16 10:31:22;;;;;;;2.75;1.72;;;;;;;8.35;39.90;102435.95;1579234;89;21165;-52
2022/01/16 10:33:49;;;;;;;6.55;2.42;;;;;;;8.36;39.83;102443.77;1581187;89;21096;-52
2022/01/16 10:36:36;;;;;;;3.33;2.17;;;;;;;8.40;39.84;102444.68;1579220;89;21035;-52
2022/01/16 10:39:06;;;;;;;5.78;2.75;;;;;;;8.40;39.90;102445.98;1570577;89;21075;-52
2022/01/16 10:41:34;;;;;;;4.08;2.40;;;;;;;8.42;39.93;102437.80;1578922;89;21046;-52
2022/01/16 10:44:00;;;;;;;4.67;2.05;;;;;;;8.45;39.85;102439.14;1577103;89;21078;-53
2022/01/16 10:46:28;;;;;;;4.90;2.15;;;;;;;8.47;39.77;102432.26;1581156;89;21108;-52
2022/01/16 10:49:18;;;;;;;2.52;1.95;;;;;;;8.46;39.52;102427.48;1585925;89;21031;-52
2022/01/16 10:52:09;;;;;;;7.03;2.00;;;;;;;8.49;39.35;102421.47;1574110;89;21594;-52
2022/01/16 10:54:40;;;;;;;2.77;1.92;;;;;;;8.51;39.00;102418.02;1483261;96;21185;-52
2022/01/16 10:57:25;;;;;;;4.10;1.92;;;;;;;8.52;38.81;102420.20;1481254;96;21623;-52
2022/01/16 11:00:22;;;;;;;4.03;2.08;;;;;;;8.52;38.81;102417.60;1479892;96;21170;-51
2022/01/16 11:02:51;;;;;;;3.12;2.00;;;;;;;8.54;38.81;102419.79;1479984;96;21110;-51
2022/01/16 11:05:22;;;;;;;4.85;1.92;;;;;;;8.54;38.64;102411.59;1478717;96;21604;-51
2022/01/16 11:08:05;;;;;;;3.30;1.95;;;;;;;8.54;38.63;102413.30;1492447;95;21590;-51
2022/01/16 11:10:35;;;;;;;3.15;1.90;;;;;;;8.55;38.64;102408.58;1482002;95;21184;-51
2022/01/16 11:13:09;;;;;;;2.75;2.00;;;;;;;8.55;38.70;102402.94;1494364;95;21683;-52
2022/01/16 11:15:40;;;;;;;2.52;2.00;;;;;;;8.57;38.83;102408.17;1474837;95;22001;-51
2022/01/16 11:18:08;;;;;;;3.95;2.10;;;;;;;8.57;38.76;102402.98;1486881;95;21097;-52
2022/01/16 11:20:36;;;;;;;3.67;2.00;;;;;;;8.58;38.69;102402.11;1513335;92;21104;-52
2022/01/16 11:25:38;;;;;;;5.45;2.52;;;;;;;8.58;38.92;102408.59;1440962;98;21105;-52
2022/01/16 11:28:15;;;;;;;4.22;2.50;;;;;;;8.57;38.60;102404.28;1447249;98;21093;-52
2022/01/16 11:30:47;;;;;;;4.05;2.22;;;;;;;8.56;38.02;102409.01;1447410;93;21653;-52
2022/01/16 11:33:15;;;;;;;3.02;1.90;;;;;;;8.55;37.97;102404.69;1487376;95;21642;-52
2022/01/16 11:35:55;;;;;;;2.80;1.67;;;;;;;8.51;37.62;102408.94;1461710;96;21121;-51
2022/01/16 11:38:25;;;;;;;3.70;1.50;;;;;;;8.48;36.92;102413.23;1488386;95;21134;-52
2022/01/16 11:40:51;;;;;;;4.08;1.72;;;;;;;8.45;36.76;102408.02;1535432;92;21118;-51
2022/01/16 11:43:34;;;;;;;3.72;1.77;;;;;;;8.45;36.17;102401.53;1519393;93;21153;-51
2022/01/16 11:46:14;;;;;;;3.42;1.90;;;;;;;8.40;36.15;102401.88;1526802;92;21147;-52
2022/01/16 11:48:49;;;;;;;3.33;1.62;;;;;;;8.38;36.57;102403.17;1542476;92;21630;-52
2022/01/16 11:51:40;;;;;;;5.65;1.72;;;;;;;8.39;36.47;102409.23;1544557;93;21083;-52
2022/01/16 11:54:29;;;;;;;3.45;1.75;;;;;;;8.41;36.54;102412.72;1531192;92;21112;-52
2022/01/16 11:57:23;;;;;;;4.58;2.42;;;;;;;8.44;36.46;102410.15;1472247;96;21144;-52
2022/01/16 12:00:12;;;;;;;2.22;1.50;;;;;;;8.42;36.40;102414.03;1486559;95;21580;-52
2022/01/16 12:02:44;;;;;;;3.72;1.85;;;;;;;8.39;36.53;102411.83;1466562;94;21028;-51
2022/01/16 12:05:10;;;;;;;3.67;1.98;;;;;;;8.34;36.68;102411.77;1503475;94;21559;-51
2022/01/16 12:07:45;;;;;;;2.42;1.50;;;;;;;8.31;36.90;102410.82;1522488;94;22134;-51
2022/01/16 12:10:09;;;;;;;2.45;1.77;;;;;;;8.28;36.79;102410.80;1533103;92;21116;-51
2022/01/16 12:12:36;;;;;;;3.22;1.80;;;;;;;8.26;36.66;102408.61;1561948;90;21126;-51
2022/01/16 12:15:06;;;;;;;2.17;1.60;;;;;;;8.24;36.84;102411.16;1571041;90;21155;-51
2022/01/16 12:17:46;;;;;;;4.92;1.77;;;;;;;8.26;36.92;102406.02;1569043;90;21158;-51
2022/01/16 12:20:22;;;;;;;2.47;1.67;;;;;;;8.28;36.43;102403.02;1557999;90;21121;-51
2022/01/16 12:22:58;;;;;;;1.52;1.42;;;;;;;8.27;35.82;102405.15;1555688;92;21147;-51
2022/01/16 12:25:40;;;;;;;2.98;1.60;;;;;;;8.23;35.69;102419.77;1543542;92;21128;-51
2022/01/16 12:28:15;;;;;;;3.30;1.62;;;;;;;8.19;36.11;102427.06;1563317;88;21055;-51
2022/01/16 12:31:00;;;;;;;3.52;1.62;;;;;;;8.15;36.17;102420.97;1594851;88;21124;-51